Time;durP1;ratioP1;P1;durP2;ratioP2;P2;SDS_P1;SDS_P2;PMS_P1;PMS_P2;Temp;Humidity;BMP_temperature;BMP_pressure;BME280_temperature;BME280_humidity;BME280_pressure;Samples;Min_cycle;Max_cycle;Signal;HPM_P1;HPM_P2
2021/12/23 00:00:27;;;;;;;20.07;8.67;;;;;;;-8.83;100.00;93223.03;2073736;28;20488;-85
2021/12/23 00:01:32;;;;;;;20.00;10.20;;;;;;;-8.82;100.00;93222.00;2073682;28;20409;-84
2021/12/23 00:02:38;;;;;;;20.70;9.50;;;;;;;-8.97;100.00;93235.25;2076845;28;20448;-83
2021/12/23 00:03:46;;;;;;;20.37;9.33;;;;;;;-8.97;100.00;93227.50;2082712;28;20452;-84
2021/12/23 00:04:50;;;;;;;23.13;11.07;;;;;;;-9.12;100.00;93226.00;2071343;28;20448;-83
2021/12/23 00:05:56;;;;;;;20.90;9.23;;;;;;;-9.01;100.00;93232.47;2074676;28;21091;-83
2021/12/23 00:06:58;;;;;;;21.13;8.80;;;;;;;-8.88;100.00;93221.34;2074369;28;20456;-83
2021/12/23 00:07:59;;;;;;;17.83;8.13;;;;;;;-8.96;100.00;93222.03;2065806;28;20477;-83
2021/12/23 00:09:05;;;;;;;22.07;9.57;;;;;;;-8.90;100.00;93220.88;2074106;28;20436;-83
2021/12/23 00:10:08;;;;;;;21.30;10.03;;;;;;;-9.05;100.00;93216.00;2074289;28;20460;-84
2021/12/23 00:11:12;;;;;;;19.53;9.87;;;;;;;-8.90;100.00;93220.09;2066371;28;20489;-86
2021/12/23 00:12:17;;;;;;;21.43;8.60;;;;;;;-8.88;100.00;93217.97;2062274;28;20477;-82
2021/12/23 00:13:21;;;;;;;20.87;9.13;;;;;;;-8.91;100.00;93213.38;2075089;28;20452;-83
2021/12/23 00:14:24;;;;;;;28.33;10.07;;;;;;;-9.08;100.00;93215.84;2090190;28;20447;-85
2021/12/23 00:17:17;;;;;;;20.83;9.53;;;;;;;-8.92;100.00;93215.19;2055026;28;20439;-84
2021/12/23 00:24:06;;;;;;;23.58;10.10;;;;;;;-8.91;100.00;93195.25;2084244;28;20056;-87
2021/12/23 00:25:07;;;;;;;21.17;10.33;;;;;;;-8.99;100.00;93191.56;2073229;28;20030;-84
2021/12/23 00:26:10;;;;;;;22.07;10.20;;;;;;;-8.93;100.00;93194.78;2073491;28;20803;-83
2021/12/23 00:27:12;;;;;;;21.20;9.60;;;;;;;-8.80;100.00;93195.81;2073611;28;20456;-84
2021/12/23 00:28:16;;;;;;;24.83;11.70;;;;;;;-8.79;100.00;93187.75;2073570;28;20444;-84
2021/12/23 00:29:17;;;;;;;27.53;12.57;;;;;;;-8.72;100.00;93189.94;2069294;28;20523;-84
2021/12/23 00:30:18;;;;;;;29.70;12.60;;;;;;;-8.84;100.00;93194.84;2076592;28;20464;-83
2021/12/23 00:31:20;;;;;;;34.27;12.47;;;;;;;-8.97;100.00;93186.84;2072133;28;20030;-84
2021/12/23 00:32:21;;;;;;;28.40;11.77;;;;;;;-8.86;100.00;93189.97;2071355;28;20456;-84
2021/12/23 00:33:23;;;;;;;28.70;12.77;;;;;;;-8.70;100.00;93185.22;2067684;28;20467;-86
2021/12/23 00:34:24;;;;;;;32.53;13.13;;;;;;;-9.01;100.00;93192.88;2068117;28;20029;-85
2021/12/23 00:35:27;;;;;;;35.73;13.03;;;;;;;-9.11;100.00;93188.69;2064733;28;20800;-85
2021/12/23 00:36:28;;;;;;;26.93;11.57;;;;;;;-9.08;100.00;93192.53;2065673;28;20026;-85
2021/12/23 00:37:37;;;;;;;30.13;12.97;;;;;;;-8.95;100.00;93186.56;2073319;28;20444;-84
2021/12/23 00:38:48;;;;;;;28.80;12.90;;;;;;;-9.08;100.00;93179.59;2082262;28;20456;-85
2021/12/23 00:39:48;;;;;;;28.37;11.77;;;;;;;-9.08;100.00;93185.53;2081318;28;20466;-83
2021/12/23 00:40:52;;;;;;;27.43;11.80;;;;;;;-9.23;100.00;93188.44;2064840;28;20453;-83
2021/12/23 00:41:54;;;;;;;26.53;12.57;;;;;;;-9.34;100.00;93179.34;2065604;28;20049;-84
2021/12/23 00:42:56;;;;;;;27.93;13.00;;;;;;;-9.30;100.00;93180.31;2082006;28;20440;-86
2021/12/23 00:43:58;;;;;;;27.33;12.23;;;;;;;-9.36;100.00;93181.44;2089741;28;20463;-86
2021/12/23 00:44:59;;;;;;;27.70;12.63;;;;;;;-9.38;100.00;93179.16;2085731;28;20991;-85
2021/12/23 00:46:03;;;;;;;31.87;12.03;;;;;;;-9.28;100.00;93181.53;2083024;28;20531;-86
2021/12/23 00:47:05;;;;;;;28.50;12.77;;;;;;;-9.30;100.00;93181.06;2080405;28;21336;-84
2021/12/23 00:48:05;;;;;;;30.73;12.70;;;;;;;-9.36;100.00;93182.22;2073267;28;20530;-86
2021/12/23 00:49:08;;;;;;;28.43;13.33;;;;;;;-9.32;100.00;93180.59;2073233;28;20507;-86
2021/12/23 00:50:10;;;;;;;32.30;14.17;;;;;;;-9.25;100.00;93190.56;2073959;28;20034;-84
2021/12/23 00:51:12;;;;;;;28.90;13.47;;;;;;;-9.32;100.00;93185.00;2081585;28;21054;-83
2021/12/23 00:52:18;;;;;;;28.40;13.00;;;;;;;-9.35;100.00;93188.16;2073369;28;21362;-86
2021/12/23 00:53:22;;;;;;;29.80;13.70;;;;;;;-9.30;100.00;93178.47;2081462;28;20440;-86
2021/12/23 00:54:22;;;;;;;32.17;12.83;;;;;;;-9.07;100.00;93183.72;2081417;28;20443;-83
2021/12/23 00:55:24;;;;;;;27.83;13.47;;;;;;;-8.96;100.00;93190.19;2065272;28;20465;-82
2021/12/23 00:56:26;;;;;;;30.53;13.37;;;;;;;-9.02;100.00;93181.78;2071811;28;20026;-84
2021/12/23 00:57:29;;;;;;;31.27;13.30;;;;;;;-9.17;100.00;93184.69;2065373;28;20434;-84
2021/12/23 00:58:30;;;;;;;27.57;12.67;;;;;;;-9.04;100.00;93186.50;2073596;28;20456;-85
2021/12/23 00:59:32;;;;;;;30.00;13.57;;;;;;;-9.08;100.00;93180.34;2073499;28;20448;-85
2021/12/23 01:00:33;;;;;;;33.40;12.97;;;;;;;-9.03;100.00;93176.91;2081204;28;20427;-84
2021/12/23 01:01:35;;;;;;;36.23;15.33;;;;;;;-8.90;100.00;93182.03;2081377;28;20444;-85
2021/12/23 01:02:36;;;;;;;33.10;13.50;;;;;;;-9.09;100.00;93180.63;2073324;28;20444;-84
2021/12/23 01:03:37;;;;;;;28.97;12.53;;;;;;;-8.81;100.00;93186.50;2089285;28;20447;-84
2021/12/23 01:04:38;;;;;;;34.37;13.77;;;;;;;-8.97;100.00;93178.31;2065158;28;20850;-84
2021/12/23 01:05:40;;;;;;;30.40;13.93;;;;;;;-8.95;100.00;93169.19;2065317;28;20050;-84
2021/12/23 01:06:41;;;;;;;31.57;13.73;;;;;;;-9.02;100.00;93176.59;2065279;28;20532;-85
2021/12/23 01:07:43;;;;;;;29.67;12.90;;;;;;;-9.00;100.00;93173.69;2073475;28;21051;-84
2021/12/23 01:08:48;;;;;;;30.57;13.23;;;;;;;-8.95;100.00;93173.63;2081368;28;20459;-85
2021/12/23 01:09:51;;;;;;;34.73;14.50;;;;;;;-8.91;100.00;93180.50;2073109;28;20449;-84
2021/12/23 01:10:58;;;;;;;33.93;13.90;;;;;;;-8.78;100.00;93173.75;2070937;28;20499;-83
2021/12/23 01:11:59;;;;;;;37.37;14.47;;;;;;;-8.97;100.00;93171.31;2073838;28;20488;-83
2021/12/23 01:13:04;;;;;;;34.30;14.90;;;;;;;-8.89;100.00;93168.00;2073170;28;20472;-87
2021/12/23 01:14:27;;;;;;;33.57;15.40;;;;;;;-8.93;100.00;93176.66;2073173;28;20444;-84
2021/12/23 01:16:49;;;;;;;32.67;14.63;;;;;;;-8.92;100.00;93178.94;2074130;28;20464;-85
2021/12/23 01:18:08;;;;;;;34.90;13.60;;;;;;;-8.98;100.00;93177.53;2081150;28;20451;-86
2021/12/23 01:19:12;;;;;;;35.07;13.30;;;;;;;-8.74;100.00;93169.50;2069557;28;20461;-85
2021/12/23 01:20:13;;;;;;;34.20;15.13;;;;;;;-8.82;100.00;93172.81;2073641;28;20507;-85
2021/12/23 01:21:17;;;;;;;39.50;15.53;;;;;;;-8.62;100.00;93164.56;2073191;28;20444;-84
2021/12/23 01:22:18;;;;;;;34.33;13.87;;;;;;;-8.41;100.00;93174.44;2073361;28;20567;-84
2021/12/23 01:23:25;;;;;;;36.10;14.50;;;;;;;-8.60;100.00;93179.03;2072374;28;20515;-83
2021/12/23 01:24:28;;;;;;;36.37;15.53;;;;;;;-8.69;100.00;93171.97;2074773;28;20448;-84
2021/12/23 01:25:33;;;;;;;40.63;15.83;;;;;;;-8.69;100.00;93179.75;2073385;28;20475;-88
2021/12/23 01:26:36;;;;;;;33.30;16.03;;;;;;;-8.69;100.00;93171.97;2073546;28;20567;-85
2021/12/23 01:27:40;;;;;;;35.33;14.93;;;;;;;-8.65;100.00;93169.56;2065157;28;20449;-84
2021/12/23 01:28:42;;;;;;;32.13;14.63;;;;;;;-8.56;100.00;93164.44;2073702;28;20998;-84
2021/12/23 01:29:43;;;;;;;37.13;15.13;;;;;;;-8.57;100.00;93168.09;2065061;28;20468;-85
2021/12/23 01:30:46;;;;;;;38.40;15.47;;;;;;;-8.55;100.00;93163.38;2073233;28;20451;-84
2021/12/23 01:31:47;;;;;;;39.30;16.63;;;;;;;-8.51;100.00;93166.91;2081015;28;20468;-85
2021/12/23 01:32:50;;;;;;;35.55;15.40;;;;;;;-8.51;100.00;93166.91;2073112;28;20441;-82
2021/12/23 01:33:51;;;;;;;39.10;15.13;;;;;;;-8.53;100.00;93166.44;2073681;28;20018;-83
2021/12/23 01:34:52;;;;;;;41.50;16.63;;;;;;;-8.44;100.00;93162.84;2076096;28;20519;-82
2021/12/23 01:35:53;;;;;;;38.83;16.53;;;;;;;-8.31;100.00;93160.44;2078398;28;20829;-85
2021/12/23 01:37:00;;;;;;;35.30;16.10;;;;;;;-8.28;100.00;93152.84;2072937;28;20060;-83
2021/12/23 01:38:08;;;;;;;38.20;16.07;;;;;;;-8.32;100.00;93153.72;2066672;28;20022;-85
2021/12/23 01:39:16;;;;;;;37.20;15.87;;;;;;;-8.34;100.00;93153.25;2073928;28;20460;-82
2021/12/23 01:40:18;;;;;;;32.67;14.33;;;;;;;-8.27;100.00;93151.00;2066829;28;20450;-82
2021/12/23 01:41:21;;;;;;;36.40;15.53;;;;;;;-8.27;100.00;93156.97;2081341;28;20546;-84
2021/12/23 01:42:22;;;;;;;35.87;16.13;;;;;;;-8.29;100.00;93147.97;2081305;28;20444;-83
2021/12/23 01:43:23;;;;;;;39.17;15.30;;;;;;;-8.33;100.00;93149.63;2072869;28;20518;-86
2021/12/23 01:44:27;;;;;;;36.50;15.48;;;;;;;-8.27;100.00;93153.59;2064787;28;20045;-85
2021/12/23 01:45:33;;;;;;;35.23;15.50;;;;;;;-8.11;100.00;93139.19;2065833;28;20023;-87
2021/12/23 01:46:34;;;;;;;34.77;15.27;;;;;;;-8.24;100.00;93153.03;2073537;28;22368;-85
2021/12/23 01:47:35;;;;;;;40.83;17.33;;;;;;;-8.15;100.00;93148.63;2073005;28;20825;-85
2021/12/23 01:48:37;;;;;;;39.27;16.10;;;;;;;-8.23;100.00;93146.75;2077097;28;20453;-83
2021/12/23 01:49:39;;;;;;;35.33;15.50;;;;;;;-8.25;100.00;93148.88;2069220;28;20485;-83
2021/12/23 01:50:41;;;;;;;36.60;15.18;;;;;;;-8.16;100.00;93142.69;2064927;28;20521;-85
2021/12/23 01:51:53;;;;;;;36.27;15.73;;;;;;;-8.11;100.00;93139.19;2060544;28;20523;-85
2021/12/23 01:52:56;;;;;;;34.87;14.20;;;;;;;-8.08;100.00;93141.19;2076632;28;20460;-85
2021/12/23 01:54:01;;;;;;;35.42;15.57;;;;;;;-8.26;100.00;93140.34;2067649;28;20446;-85
2021/12/23 01:55:03;;;;;;;35.90;15.17;;;;;;;-8.03;100.00;93138.47;2073187;28;20519;-84
2021/12/23 01:56:04;;;;;;;35.87;16.03;;;;;;;-8.10;100.00;93135.53;2073346;28;20484;-84
2021/12/23 01:57:06;;;;;;;33.67;15.00;;;;;;;-8.11;100.00;93137.38;2072763;28;20441;-83
2021/12/23 01:58:07;;;;;;;33.73;15.57;;;;;;;-8.15;100.00;93135.69;2065036;28;20446;-86
2021/12/23 01:59:10;;;;;;;37.38;15.93;;;;;;;-8.30;100.00;93136.03;2064776;28;20508;-83
2021/12/23 02:00:14;;;;;;;30.90;14.70;;;;;;;-8.18;100.00;93128.47;2073203;28;21212;-83
2021/12/23 02:01:15;;;;;;;38.23;16.47;;;;;;;-8.13;100.00;93134.28;2065238;28;20862;-86
2021/12/23 02:02:16;;;;;;;36.17;14.70;;;;;;;-7.98;100.00;93135.00;2064784;28;20916;-83
2021/12/23 02:03:19;;;;;;;33.37;14.50;;;;;;;-7.79;100.00;93124.38;2064737;28;20429;-84
2021/12/23 02:04:19;;;;;;;34.07;16.40;;;;;;;-8.11;100.00;93131.44;2057098;28;20466;-84
2021/12/23 02:05:21;;;;;;;38.40;15.48;;;;;;;-8.13;100.00;93133.53;2064591;28;20446;-86
2021/12/23 02:06:22;;;;;;;34.30;14.87;;;;;;;-8.00;100.00;93127.50;2074139;28;20030;-85
2021/12/23 02:07:23;;;;;;;30.37;14.50;;;;;;;-7.96;100.00;93132.84;2072590;28;20433;-85
2021/12/23 02:08:24;;;;;;;34.67;14.80;;;;;;;-7.96;100.00;93122.47;2072780;28;20026;-85
2021/12/23 02:09:25;;;;;;;38.97;14.93;;;;;;;-7.95;100.00;93122.16;2072994;28;20532;-85
2021/12/23 02:10:27;;;;;;;33.03;14.52;;;;;;;-7.95;100.00;93124.75;2072800;28;20444;-83
2021/12/23 02:11:28;;;;;;;38.85;14.88;;;;;;;-8.04;100.00;93120.59;2072741;28;20033;-84
2021/12/23 02:12:29;;;;;;;31.17;13.82;;;;;;;-7.86;100.00;93120.38;2072584;28;20441;-84
2021/12/23 02:13:31;;;;;;;39.83;15.40;;;;;;;-7.93;100.00;93125.25;2064552;28;20441;-84
2021/12/23 02:14:32;;;;;;;33.07;13.87;;;;;;;-7.94;100.00;93115.94;2081075;28;20036;-88
2021/12/23 02:15:33;;;;;;;36.72;16.10;;;;;;;-8.06;100.00;93113.13;2080656;28;20527;-84
2021/12/23 02:16:34;;;;;;;39.42;15.65;;;;;;;-7.95;100.00;93121.41;2067474;28;20504;-84
2021/12/23 02:17:36;;;;;;;34.17;16.10;;;;;;;-8.01;100.00;93114.84;2064646;28;20050;-86
2021/12/23 02:18:37;;;;;;;40.57;16.57;;;;;;;-7.81;100.00;93114.31;2065003;28;20022;-83
2021/12/23 02:19:38;;;;;;;35.17;16.15;;;;;;;-7.96;100.00;93107.66;2064728;28;20532;-86
2021/12/23 02:20:39;;;;;;;38.45;15.60;;;;;;;-7.84;100.00;93112.28;2064566;28;20458;-84
2021/12/23 02:21:44;;;;;;;39.03;17.02;;;;;;;-7.91;100.00;93110.13;2080883;28;20013;-84
2021/12/23 02:22:45;;;;;;;35.65;15.25;;;;;;;-7.88;100.00;93119.91;2089031;28;20027;-82
2021/12/23 02:23:51;;;;;;;45.17;18.20;;;;;;;-7.89;100.00;93110.59;2080620;28;20464;-85
2021/12/23 02:24:57;;;;;;;39.80;16.70;;;;;;;-7.98;100.00;93112.41;2070424;28;20533;-84
2021/12/23 02:26:04;;;;;;;41.33;17.20;;;;;;;-7.87;100.00;93107.69;2065180;28;20472;-84
2021/12/23 02:27:06;;;;;;;37.97;17.63;;;;;;;-7.88;100.00;93099.16;2065385;28;20540;-85
2021/12/23 02:28:16;;;;;;;39.17;17.13;;;;;;;-7.81;100.00;93103.13;2064812;28;21092;-82
2021/12/23 02:29:32;;;;;;;43.47;17.23;;;;;;;-7.69;100.00;93108.50;2067297;28;20811;-83
2021/12/23 02:30:40;;;;;;;39.13;17.75;;;;;;;-7.94;100.00;93110.75;2076932;28;20910;-83
2021/12/23 02:31:52;;;;;;;41.93;18.20;;;;;;;-7.94;100.00;93107.38;2073341;28;20481;-83
2021/12/23 02:32:57;;;;;;;44.13;18.00;;;;;;;-7.95;100.00;93100.66;2059555;28;20450;-84
2021/12/23 02:34:00;;;;;;;44.97;17.30;;;;;;;-7.87;100.00;93098.09;2065758;28;20547;-84
2021/12/23 02:35:07;;;;;;;48.92;18.83;;;;;;;-7.93;100.00;93096.72;2064972;28;20569;-83
2021/12/23 02:36:09;;;;;;;46.80;17.37;;;;;;;-7.88;100.00;93095.81;2066242;28;20777;-85
2021/12/23 02:37:10;;;;;;;37.60;17.40;;;;;;;-7.85;100.00;93105.59;2064846;28;20996;-84
2021/12/23 02:38:11;;;;;;;49.63;18.90;;;;;;;-7.75;100.00;93097.53;2064171;28;20461;-83
2021/12/23 02:39:12;;;;;;;45.80;19.45;;;;;;;-7.76;100.00;93096.00;2072483;28;20491;-84
2021/12/23 02:40:25;;;;;;;44.95;18.33;;;;;;;-7.65;100.00;93099.06;2064486;28;20049;-85
2021/12/23 02:41:26;;;;;;;40.05;16.33;;;;;;;-7.59;100.00;93103.06;2067595;28;20034;-84
2021/12/23 02:42:27;;;;;;;41.45;18.20;;;;;;;-7.61;100.00;93097.41;2064456;28;21028;-84
2021/12/23 02:43:29;;;;;;;47.53;19.83;;;;;;;-7.72;100.00;93099.53;2056676;28;20469;-84
2021/12/23 02:44:30;;;;;;;42.17;18.80;;;;;;;-7.70;100.00;93094.03;2071476;28;20041;-85
2021/12/23 02:45:31;;;;;;;43.83;19.08;;;;;;;-7.63;100.00;93096.94;2072486;28;20493;-82
2021/12/23 02:46:35;;;;;;;50.35;19.98;;;;;;;-7.65;100.00;93101.66;2064575;28;20026;-85
2021/12/23 02:47:37;;;;;;;44.58;19.15;;;;;;;-7.55;100.00;93096.19;2073286;28;20449;-85
2021/12/23 02:48:38;;;;;;;46.47;19.08;;;;;;;-7.59;100.00;93092.69;2081097;28;20812;-85
2021/12/23 02:49:39;;;;;;;52.67;21.20;;;;;;;-7.63;100.00;93095.09;2080818;28;20490;-85
2021/12/23 02:50:41;;;;;;;43.28;17.95;;;;;;;-7.50;100.00;93093.47;2072557;28;20453;-84
2021/12/23 02:51:42;;;;;;;47.22;19.35;;;;;;;-7.47;100.00;93086.88;2060406;28;20033;-83
2021/12/23 02:52:43;;;;;;;49.05;19.02;;;;;;;-7.55;100.00;93082.44;2064461;28;20442;-85
2021/12/23 02:53:45;;;;;;;45.67;19.77;;;;;;;-7.48;100.00;93082.75;2064491;28;20437;-82
2021/12/23 02:54:57;;;;;;;47.10;20.02;;;;;;;-7.46;100.00;93075.41;2064658;28;20434;-86
2021/12/23 02:56:01;;;;;;;51.97;19.20;;;;;;;-7.55;100.00;93078.03;2067767;28;20788;-84
2021/12/23 02:57:02;;;;;;;43.00;19.17;;;;;;;-7.51;100.00;93073.75;2064660;28;20442;-84
2021/12/23 02:58:04;;;;;;;48.50;19.40;;;;;;;-7.46;100.00;93076.22;2064631;28;20549;-84
2021/12/23 02:59:05;;;;;;;48.47;19.40;;;;;;;-7.37;100.00;93084.78;2079496;28;20900;-85
2021/12/23 03:00:07;;;;;;;51.97;21.27;;;;;;;-7.50;100.00;93071.94;2079651;28;20452;-82
2021/12/23 03:01:09;;;;;;;53.97;21.10;;;;;;;-7.43;100.00;93080.78;2080886;28;20444;-86
2021/12/23 03:02:10;;;;;;;42.95;18.23;;;;;;;-7.32;100.00;93081.25;2080597;28;21025;-84
2021/12/23 03:03:11;;;;;;;49.17;20.20;;;;;;;-7.29;100.00;93074.66;2064585;28;20484;-83
2021/12/23 03:04:12;;;;;;;50.75;19.67;;;;;;;-7.24;100.00;93072.72;2073641;28;20034;-85
2021/12/23 03:05:13;;;;;;;57.20;21.50;;;;;;;-7.17;100.00;93078.19;2074242;28;20539;-84
2021/12/23 03:06:18;;;;;;;45.35;18.23;;;;;;;-7.17;100.00;93080.78;2065965;28;20084;-83
2021/12/23 03:07:19;;;;;;;48.90;18.42;;;;;;;-7.10;100.00;93077.75;2067030;28;20445;-85
2021/12/23 03:08:41;;;;;;;47.40;21.15;;;;;;;-6.92;100.00;93076.66;2074024;28;20503;-83
2021/12/23 03:09:46;;;;;;;52.38;20.13;;;;;;;-7.07;100.00;93076.34;2085474;28;20444;-83
2021/12/23 03:10:48;;;;;;;44.42;18.17;;;;;;;-7.20;100.00;93071.03;2071183;28;20453;-83
2021/12/23 03:11:49;;;;;;;56.60;20.88;;;;;;;-7.14;100.00;93082.78;2074047;28;20456;-84
2021/12/23 03:12:51;;;;;;;44.35;18.15;;;;;;;-7.05;100.00;93080.19;2070674;28;20527;-82
2021/12/23 03:13:52;;;;;;;51.25;21.10;;;;;;;-7.23;100.00;93081.25;2071414;28;20026;-84
2021/12/23 03:14:53;;;;;;;51.85;21.65;;;;;;;-7.22;100.00;93083.53;2077148;28;20466;-84
2021/12/23 03:15:54;;;;;;;51.53;20.75;;;;;;;-7.05;100.00;93082.03;2074156;28;20441;-85
2021/12/23 03:16:55;;;;;;;51.05;21.17;;;;;;;-7.11;100.00;93079.59;2066011;28;20082;-85
2021/12/23 03:17:58;;;;;;;54.22;21.88;;;;;;;-7.11;100.00;93082.19;2065902;28;20461;-85
2021/12/23 03:19:04;;;;;;;58.85;20.80;;;;;;;-7.07;100.00;93074.53;2082166;28;20056;-85
2021/12/23 03:20:06;;;;;;;49.70;21.10;;;;;;;-7.12;100.00;93080.63;2075605;28;20456;-86
2021/12/23 03:21:08;;;;;;;49.92;19.83;;;;;;;-7.11;100.00;93077.00;2074177;28;20457;-87
2021/12/23 03:22:11;;;;;;;49.08;18.67;;;;;;;-7.02;100.00;93078.78;2065798;28;20453;-85
2021/12/23 03:23:12;;;;;;;44.17;19.92;;;;;;;-6.91;100.00;93077.41;2065788;28;20463;-84
2021/12/23 03:24:15;;;;;;;49.90;21.25;;;;;;;-6.88;100.00;93076.81;2065940;28;21248;-85
2021/12/23 03:25:23;;;;;;;51.03;20.83;;;;;;;-6.85;100.00;93066.59;2074456;28;20034;-85
2021/12/23 03:26:24;;;;;;;53.00;20.35;;;;;;;-6.76;100.00;93073.56;2083184;28;20526;-85
2021/12/23 03:27:25;;;;;;;47.08;20.65;;;;;;;-6.80;100.00;93065.66;2077949;28;20449;-86
2021/12/23 03:28:26;;;;;;;53.53;21.90;;;;;;;-6.87;100.00;93062.75;2073781;28;20552;-87
2021/12/23 03:29:27;;;;;;;53.10;22.13;;;;;;;-6.91;100.00;93065.19;2066104;28;20060;-84
2021/12/23 03:30:28;;;;;;;49.55;21.40;;;;;;;-6.93;100.00;93064.75;2073986;28;20061;-83
2021/12/23 03:31:29;;;;;;;54.85;21.42;;;;;;;-6.88;100.00;93053.44;2073887;28;20449;-85
2021/12/23 03:32:30;;;;;;;47.03;19.55;;;;;;;-6.91;100.00;93060.00;2080276;28;20882;-84
2021/12/23 03:33:31;;;;;;;49.45;20.02;;;;;;;-6.85;100.00;93053.59;2076012;28;20022;-84
2021/12/23 03:34:32;;;;;;;55.75;20.27;;;;;;;-6.90;100.00;93056.31;2074073;28;20514;-82
2021/12/23 03:35:33;;;;;;;49.38;21.77;;;;;;;-6.66;100.00;93048.03;2073839;28;20448;-83
2021/12/23 03:36:35;;;;;;;53.25;20.92;;;;;;;-6.81;100.00;93048.50;2073975;28;20040;-83
2021/12/23 03:37:36;;;;;;;52.30;21.73;;;;;;;-6.81;100.00;93053.72;2082089;28;20440;-85
2021/12/23 03:38:37;;;;;;;58.33;22.48;;;;;;;-6.86;100.00;93056.47;2072757;28;20461;-84
2021/12/23 03:39:38;;;;;;;54.42;21.13;;;;;;;-6.78;100.00;93049.75;2070920;28;20372;-84
2021/12/23 03:40:39;;;;;;;56.08;23.58;;;;;;;-6.77;100.00;93038.28;2077122;28;20533;-87
2021/12/23 03:41:41;;;;;;;54.90;22.45;;;;;;;-6.77;100.00;93035.69;2074065;28;20670;-84
2021/12/23 03:42:42;;;;;;;57.05;21.30;;;;;;;-6.83;100.00;93035.09;2074130;28;20456;-84
2021/12/23 03:43:43;;;;;;;49.88;22.08;;;;;;;-6.89;100.00;93037.09;2073597;28;21225;-84
2021/12/23 03:44:44;;;;;;;52.90;20.90;;;;;;;-6.87;100.00;93039.38;2065358;28;20480;-83
2021/12/23 03:45:53;;;;;;;46.40;19.90;;;;;;;-6.74;100.00;93042.88;2065812;28;20457;-85
2021/12/23 03:46:54;;;;;;;42.78;18.48;;;;;;;-6.69;100.00;93030.47;2074819;28;20037;-84
2021/12/23 03:47:55;;;;;;;47.65;21.00;;;;;;;-6.81;100.00;93035.53;2065850;28;20885;-84
2021/12/23 03:48:56;;;;;;;49.08;21.17;;;;;;;-7.00;100.00;93040.31;2073746;28;20048;-85
2021/12/23 03:49:57;;;;;;;45.50;19.05;;;;;;;-7.01;100.00;93034.34;2079445;28;20555;-84
2021/12/23 03:50:58;;;;;;;48.75;21.48;;;;;;;-6.94;100.00;93039.06;2065892;28;20065;-84
2021/12/23 03:51:59;;;;;;;50.90;20.13;;;;;;;-7.00;100.00;93029.91;2073495;28;20116;-84
2021/12/23 03:53:00;;;;;;;55.58;22.73;;;;;;;-7.02;100.00;93034.63;2065780;28;20457;-83
2021/12/23 03:54:01;;;;;;;49.92;20.15;;;;;;;-7.00;100.00;93030.69;2065719;28;20026;-86
2021/12/23 03:55:03;;;;;;;52.78;21.40;;;;;;;-6.97;100.00;93037.09;2066022;28;20466;-84
2021/12/23 03:56:04;;;;;;;46.03;19.88;;;;;;;-6.88;100.00;93032.66;2073879;28;20420;-84
2021/12/23 03:57:06;;;;;;;52.58;20.88;;;;;;;-6.81;100.00;93032.16;2073853;28;21442;-85
2021/12/23 03:58:07;;;;;;;56.75;21.63;;;;;;;-6.89;100.00;93018.91;2066147;28;20464;-86
2021/12/23 03:59:08;;;;;;;55.38;22.52;;;;;;;-6.76;100.00;93024.19;2065746;28;20548;-86
2021/12/23 04:00:13;;;;;;;53.10;22.35;;;;;;;-6.75;100.00;93018.72;2064668;28;20453;-85
2021/12/23 04:01:14;;;;;;;49.03;20.15;;;;;;;-6.69;100.00;93021.91;2066768;28;20462;-84
2021/12/23 04:02:16;;;;;;;48.90;20.23;;;;;;;-6.76;100.00;93016.41;2057420;28;20434;-83
2021/12/23 04:03:17;;;;;;;45.38;20.23;;;;;;;-6.78;100.00;93016.72;2065893;28;20441;-85
2021/12/23 04:04:18;;;;;;;50.30;20.30;;;;;;;-6.97;100.00;93018.91;2073491;28;20913;-84
2021/12/23 04:05:19;;;;;;;43.60;17.80;;;;;;;-6.77;100.00;93020.09;2081829;28;20033;-86
2021/12/23 04:06:22;;;;;;;45.33;19.92;;;;;;;-6.82;100.00;93015.81;2073538;28;20472;-82
2021/12/23 04:07:23;;;;;;;51.67;19.70;;;;;;;-6.92;100.00;93013.56;2082255;28;20451;-84
2021/12/23 04:08:24;;;;;;;43.53;18.92;;;;;;;-6.86;100.00;93015.66;2081697;28;20964;-84
2021/12/23 04:09:25;;;;;;;50.25;21.35;;;;;;;-6.81;100.00;93017.34;2073691;28;20626;-84
2021/12/23 04:10:26;;;;;;;47.22;19.70;;;;;;;-6.82;100.00;93021.00;2073700;28;20077;-87
2021/12/23 04:11:27;;;;;;;45.05;18.77;;;;;;;-6.83;100.00;93010.94;2067012;28;20524;-84
2021/12/23 04:12:28;;;;;;;47.38;19.20;;;;;;;-6.67;100.00;93015.34;2081753;28;20460;-85
2021/12/23 04:13:31;;;;;;;47.17;20.25;;;;;;;-6.75;100.00;93016.13;2073637;28;20495;-85
2021/12/23 04:14:32;;;;;;;46.45;19.75;;;;;;;-6.78;100.00;93005.56;2073896;28;20034;-84
2021/12/23 04:15:33;;;;;;;47.22;20.10;;;;;;;-6.82;100.00;93005.44;2073043;28;20969;-83
2021/12/23 04:16:35;;;;;;;47.85;19.63;;;;;;;-6.85;100.00;93009.41;2079352;28;20444;-85
2021/12/23 04:17:36;;;;;;;45.15;19.52;;;;;;;-6.73;100.00;93011.34;2076498;28;20528;-83
2021/12/23 04:18:37;;;;;;;45.85;19.05;;;;;;;-6.91;100.00;93008.03;2073857;28;20480;-84
2021/12/23 04:19:38;;;;;;;46.67;19.05;;;;;;;-6.90;100.00;93006.19;2073599;28;20459;-83
2021/12/23 04:20:53;;;;;;;41.28;18.67;;;;;;;-7.00;100.00;93007.28;2065475;28;20445;-86
2021/12/23 04:21:57;;;;;;;38.35;17.23;;;;;;;-7.04;100.00;93000.44;2069227;28;20109;-85
2021/12/23 04:22:58;;;;;;;42.33;18.10;;;;;;;-7.02;100.00;93006.84;2079511;28;20459;-86
2021/12/23 04:23:59;;;;;;;42.55;18.08;;;;;;;-7.07;100.00;93009.59;2073443;28;20857;-84
2021/12/23 04:25:00;;;;;;;49.33;19.45;;;;;;;-7.05;100.00;93014.50;2073539;28;20436;-84
2021/12/23 04:26:02;;;;;;;41.30;17.80;;;;;;;-7.09;100.00;93011.75;2073649;28;20029;-86
2021/12/23 04:27:07;;;;;;;44.80;18.00;;;;;;;-7.08;100.00;93004.72;2064221;28;20590;-85
2021/12/23 04:28:07;;;;;;;48.20;18.45;;;;;;;-7.09;100.00;93006.56;2066400;28;20442;-86
2021/12/23 04:29:08;;;;;;;39.08;16.90;;;;;;;-7.15;100.00;92998.16;2073746;28;20472;-84
2021/12/23 04:30:10;;;;;;;44.17;18.65;;;;;;;-7.08;100.00;92997.69;2065373;28;20038;-86
2021/12/23 04:31:19;;;;;;;45.15;21.05;;;;;;;-7.07;100.00;92999.19;2065528;28;20037;-85
2021/12/23 04:32:20;;;;;;;39.30;18.90;;;;;;;-7.13;100.00;92990.81;2075941;28;20459;-82
2021/12/23 04:33:21;;;;;;;39.65;17.13;;;;;;;-7.18;100.00;92998.00;2081646;28;20022;-84
2021/12/23 04:34:22;;;;;;;38.67;17.65;;;;;;;-7.20;100.00;92993.13;2073583;28;20429;-83
2021/12/23 04:35:23;;;;;;;40.38;17.45;;;;;;;-7.20;100.00;92995.72;2073311;28;20444;-85
2021/12/23 04:36:29;;;;;;;42.75;19.00;;;;;;;-7.15;100.00;92994.81;2073576;28;20018;-85
2021/12/23 04:37:30;;;;;;;38.60;17.38;;;;;;;-7.16;100.00;92988.81;2066647;28;20442;-85
2021/12/23 04:38:31;;;;;;;46.53;18.15;;;;;;;-7.11;100.00;92999.06;2065319;28;20476;-84
2021/12/23 04:39:32;;;;;;;42.45;18.05;;;;;;;-7.06;100.00;92992.97;2073440;28;20491;-86
2021/12/23 04:40:35;;;;;;;40.38;17.25;;;;;;;-7.15;100.00;92992.22;2081463;28;20573;-87
2021/12/23 04:41:38;;;;;;;42.65;18.10;;;;;;;-7.14;100.00;92999.69;2057675;28;20102;-86
2021/12/23 04:42:39;;;;;;;36.80;17.38;;;;;;;-7.12;100.00;93000.13;2072553;28;20444;-84
2021/12/23 04:43:41;;;;;;;37.58;16.63;;;;;;;-7.15;100.00;92992.22;2073531;28;20511;-84
2021/12/23 04:44:42;;;;;;;37.45;17.55;;;;;;;-7.19;100.00;92991.28;2065523;28;20449;-85
2021/12/23 04:45:43;;;;;;;36.47;17.05;;;;;;;-7.11;100.00;92987.94;2064496;28;20881;-87
2021/12/23 04:46:44;;;;;;;44.17;19.33;;;;;;;-7.22;100.00;92991.91;2065093;28;20026;-85
2021/12/23 04:47:45;;;;;;;37.42;16.75;;;;;;;-7.15;100.00;92981.81;2065350;28;20476;-88
2021/12/23 04:48:47;;;;;;;45.38;18.67;;;;;;;-7.30;100.00;92988.25;2065380;28;20508;-85
2021/12/23 04:49:48;;;;;;;42.78;16.33;;;;;;;-7.43;100.00;92992.53;2069853;28;20536;-85
2021/12/23 04:50:49;;;;;;;37.63;17.42;;;;;;;-7.39;100.00;92990.84;2081396;28;20463;-85
2021/12/23 04:51:50;;;;;;;39.33;17.45;;;;;;;-7.41;100.00;92985.22;2081311;28;20017;-83
2021/12/23 04:52:54;;;;;;;44.22;18.02;;;;;;;-7.33;100.00;92975.91;2078010;28;20459;-85
2021/12/23 04:53:54;;;;;;;40.55;16.67;;;;;;;-7.44;100.00;92983.22;2068902;28;20030;-84